sensor_id;sensor_type;location;lat;lon;timestamp;temperature;humidity
7800;DHT22;3944;47.984;7.960;2022-07-22T00:02:10;17.20;99.90
7800;DHT22;3944;47.984;7.960;2022-07-22T00:04:37;17.20;99.90
7800;DHT22;3944;47.984;7.960;2022-07-22T00:07:04;17.20;99.90
7800;DHT22;3944;47.984;7.960;2022-07-22T00:09:31;17.20;99.90
7800;DHT22;3944;47.984;7.960;2022-07-22T00:12:00;17.00;99.90
7800;DHT22;3944;47.984;7.960;2022-07-22T00:14:27;17.10;99.90
7800;DHT22;3944;47.984;7.960;2022-07-22T00:16:53;17.00;99.90
7800;DHT22;3944;47.984;7.960;2022-07-22T00:19:20;16.90;99.90
7800;DHT22;3944;47.984;7.960;2022-07-22T00:21:49;16.90;99.90
7800;DHT22;3944;47.984;7.960;2022-07-22T00:24:16;16.80;99.90
7800;DHT22;3944;47.984;7.960;2022-07-22T00:26:43;16.80;99.90
7800;DHT22;3944;47.984;7.960;2022-07-22T00:29:11;16.90;99.90
7800;DHT22;3944;47.984;7.960;2022-07-22T00:31:38;16.90;99.90
7800;DHT22;3944;47.984;7.960;2022-07-22T00:34:05;16.90;99.90
7800;DHT22;3944;47.984;7.960;2022-07-22T00:36:32;16.80;99.90
7800;DHT22;3944;47.984;7.960;2022-07-22T00:38:59;16.70;99.90
7800;DHT22;3944;47.984;7.960;2022-07-22T00:41:26;16.70;99.90
7800;DHT22;3944;47.984;7.960;2022-07-22T00:43:56;16.80;99.90
7800;DHT22;3944;47.984;7.960;2022-07-22T00:46:26;16.80;99.90
7800;DHT22;3944;47.984;7.960;2022-07-22T00:48:54;16.80;99.90
7800;DHT22;3944;47.984;7.960;2022-07-22T00:51:22;16.80;99.90
7800;DHT22;3944;47.984;7.960;2022-07-22T00:53:50;16.60;99.90
7800;DHT22;3944;47.984;7.960;2022-07-22T00:56:18;16.70;99.90
7800;DHT22;3944;47.984;7.960;2022-07-22T00:58:46;16.60;99.90
7800;DHT22;3944;47.984;7.960;2022-07-22T01:01:13;16.70;99.90
7800;DHT22;3944;47.984;7.960;2022-07-22T01:03:42;16.90;99.90
7800;DHT22;3944;47.984;7.960;2022-07-22T01:06:09;16.90;99.90
7800;DHT22;3944;47.984;7.960;2022-07-22T01:08:38;16.60;99.90
7800;DHT22;3944;47.984;7.960;2022-07-22T01:11:09;16.60;99.90
7800;DHT22;3944;47.984;7.960;2022-07-22T01:13:36;16.70;99.90
7800;DHT22;3944;47.984;7.960;2022-07-22T01:16:04;16.70;99.90
7800;DHT22;3944;47.984;7.960;2022-07-22T01:18:31;16.60;99.90
7800;DHT22;3944;47.984;7.960;2022-07-22T01:20:59;16.70;99.90
7800;DHT22;3944;47.984;7.960;2022-07-22T01:23:26;16.50;99.90
7800;DHT22;3944;47.984;7.960;2022-07-22T01:25:54;16.50;99.90
7800;DHT22;3944;47.984;7.960;2022-07-22T01:28:21;16.50;99.90
7800;DHT22;3944;47.984;7.960;2022-07-22T01:30:47;16.40;99.90
7800;DHT22;3944;47.984;7.960;2022-07-22T01:33:15;16.40;99.90
7800;DHT22;3944;47.984;7.960;2022-07-22T01:35:42;16.40;99.90
7800;DHT22;3944;47.984;7.960;2022-07-22T01:38:11;16.40;99.90
7800;DHT22;3944;47.984;7.960;2022-07-22T01:40:38;16.40;99.90
7800;DHT22;3944;47.984;7.960;2022-07-22T01:43:05;16.40;99.90
7800;DHT22;3944;47.984;7.960;2022-07-22T01:45:32;16.40;99.90
7800;DHT22;3944;47.984;7.960;2022-07-22T01:47:59;16.40;99.90
7800;DHT22;3944;47.984;7.960;2022-07-22T01:50:27;16.30;99.90
7800;DHT22;3944;47.984;7.960;2022-07-22T01:52:54;16.30;99.90
7800;DHT22;3944;47.984;7.960;2022-07-22T01:55:22;16.20;99.90
7800;DHT22;3944;47.984;7.960;2022-07-22T01:57:49;16.50;99.90
7800;DHT22;3944;47.984;7.960;2022-07-22T02:00:16;16.30;99.90
7800;DHT22;3944;47.984;7.960;2022-07-22T02:02:43;16.30;99.90
7800;DHT22;3944;47.984;7.960;2022-07-22T02:05:10;16.30;99.90
7800;DHT22;3944;47.984;7.960;2022-07-22T02:07:37;16.30;99.90
7800;DHT22;3944;47.984;7.960;2022-07-22T02:10:05;16.30;99.90
7800;DHT22;3944;47.984;7.960;2022-07-22T02:12:33;16.30;99.90
7800;DHT22;3944;47.984;7.960;2022-07-22T02:15:00;16.30;99.90
7800;DHT22;3944;47.984;7.960;2022-07-22T02:17:27;16.40;99.90
7800;DHT22;3944;47.984;7.960;2022-07-22T02:19:54;16.40;99.90
7800;DHT22;3944;47.984;7.960;2022-07-22T02:22:21;16.30;99.90
7800;DHT22;3944;47.984;7.960;2022-07-22T02:24:47;16.30;99.90
7800;DHT22;3944;47.984;7.960;2022-07-22T02:27:14;16.30;99.90
7800;DHT22;3944;47.984;7.960;2022-07-22T02:29:43;16.10;99.90
7800;DHT22;3944;47.984;7.960;2022-07-22T02:32:10;16.10;99.90
7800;DHT22;3944;47.984;7.960;2022-07-22T02:34:37;16.40;99.90
7800;DHT22;3944;47.984;7.960;2022-07-22T02:37:04;16.40;99.90
7800;DHT22;3944;47.984;7.960;2022-07-22T02:39:31;16.40;99.90
7800;DHT22;3944;47.984;7.960;2022-07-22T02:41:58;16.40;99.90
7800;DHT22;3944;47.984;7.960;2022-07-22T02:44:25;16.40;99.90
7800;DHT22;3944;47.984;7.960;2022-07-22T02:46:53;16.20;99.90
7800;DHT22;3944;47.984;7.960;2022-07-22T02:49:20;16.20;99.90
7800;DHT22;3944;47.984;7.960;2022-07-22T02:51:47;16.20;99.90
7800;DHT22;3944;47.984;7.960;2022-07-22T02:54:13;16.20;99.90
7800;DHT22;3944;47.984;7.960;2022-07-22T02:56:40;16.20;99.90
7800;DHT22;3944;47.984;7.960;2022-07-22T02:59:07;16.40;99.90
7800;DHT22;3944;47.984;7.960;2022-07-22T03:01:34;16.40;99.90
7800;DHT22;3944;47.984;7.960;2022-07-22T03:04:02;16.50;99.90
7800;DHT22;3944;47.984;7.960;2022-07-22T03:06:29;16.30;99.90
7800;DHT22;3944;47.984;7.960;2022-07-22T03:08:56;16.20;99.90
7800;DHT22;3944;47.984;7.960;2022-07-22T03:11:23;16.40;99.90
7800;DHT22;3944;47.984;7.960;2022-07-22T03:13:50;16.50;99.90
7800;DHT22;3944;47.984;7.960;2022-07-22T03:16:16;16.30;99.90
7800;DHT22;3944;47.984;7.960;2022-07-22T03:18:43;16.30;99.90
7800;DHT22;3944;47.984;7.960;2022-07-22T03:21:11;16.30;99.90
7800;DHT22;3944;47.984;7.960;2022-07-22T03:23:38;16.30;99.90
7800;DHT22;3944;47.984;7.960;2022-07-22T03:26:05;16.40;99.90
7800;DHT22;3944;47.984;7.960;2022-07-22T03:28:32;16.50;99.90
7800;DHT22;3944;47.984;7.960;2022-07-22T03:30:59;16.30;99.90
7800;DHT22;3944;47.984;7.960;2022-07-22T03:33:26;16.30;99.90
7800;DHT22;3944;47.984;7.960;2022-07-22T03:35:52;16.30;99.90
7800;DHT22;3944;47.984;7.960;2022-07-22T03:38:21;16.20;99.90
7800;DHT22;3944;47.984;7.960;2022-07-22T03:40:48;16.00;99.90
7800;DHT22;3944;47.984;7.960;2022-07-22T03:43:15;16.10;99.90
7800;DHT22;3944;47.984;7.960;2022-07-22T03:45:41;16.20;99.90
7800;DHT22;3944;47.984;7.960;2022-07-22T03:48:08;16.10;99.90
7800;DHT22;3944;47.984;7.960;2022-07-22T03:50:35;16.00;99.90
7800;DHT22;3944;47.984;7.960;2022-07-22T03:53:02;16.00;99.90
7800;DHT22;3944;47.984;7.960;2022-07-22T03:55:30;15.90;99.90
7800;DHT22;3944;47.984;7.960;2022-07-22T03:57:57;15.90;99.90
7800;DHT22;3944;47.984;7.960;2022-07-22T04:00:24;15.90;99.90
7800;DHT22;3944;47.984;7.960;2022-07-22T04:02:51;16.10;99.90
7800;DHT22;3944;47.984;7.960;2022-07-22T04:05:18;16.30;99.90
7800;DHT22;3944;47.984;7.960;2022-07-22T04:07:44;16.10;99.90
7800;DHT22;3944;47.984;7.960;2022-07-22T04:10:11;15.90;99.90
7800;DHT22;3944;47.984;7.960;2022-07-22T04:12:40;15.90;99.90
7800;DHT22;3944;47.984;7.960;2022-07-22T04:15:08;15.90;99.90
7800;DHT22;3944;47.984;7.960;2022-07-22T04:17:35;16.20;99.90
7800;DHT22;3944;47.984;7.960;2022-07-22T04:20:02;16.00;99.90
7800;DHT22;3944;47.984;7.960;2022-07-22T04:22:30;15.90;99.90
7800;DHT22;3944;47.984;7.960;2022-07-22T04:24:56;16.00;99.90
7800;DHT22;3944;47.984;7.960;2022-07-22T04:27:23;16.00;99.90
7800;DHT22;3944;47.984;7.960;2022-07-22T04:29:51;16.00;99.90
7800;DHT22;3944;47.984;7.960;2022-07-22T04:32:18;16.00;99.90
7800;DHT22;3944;47.984;7.960;2022-07-22T04:34:45;16.00;99.90
7800;DHT22;3944;47.984;7.960;2022-07-22T04:37:12;16.00;99.90
7800;DHT22;3944;47.984;7.960;2022-07-22T04:39:39;15.90;99.90
7800;DHT22;3944;47.984;7.960;2022-07-22T04:42:06;15.90;99.90
7800;DHT22;3944;47.984;7.960;2022-07-22T04:44:32;16.10;99.90
7800;DHT22;3944;47.984;7.960;2022-07-22T04:47:01;16.00;99.90
7800;DHT22;3944;47.984;7.960;2022-07-22T04:49:28;16.10;99.90
7800;DHT22;3944;47.984;7.960;2022-07-22T04:51:55;16.00;99.90
7800;DHT22;3944;47.984;7.960;2022-07-22T04:54:22;16.00;99.90
7800;DHT22;3944;47.984;7.960;2022-07-22T04:56:48;15.90;99.90
7800;DHT22;3944;47.984;7.960;2022-07-22T04:59:15;16.10;99.90
7800;DHT22;3944;47.984;7.960;2022-07-22T05:01:42;15.90;99.90
7800;DHT22;3944;47.984;7.960;2022-07-22T05:04:10;16.00;99.90
7800;DHT22;3944;47.984;7.960;2022-07-22T05:06:37;15.90;99.90
7800;DHT22;3944;47.984;7.960;2022-07-22T05:09:04;16.10;99.90
7800;DHT22;3944;47.984;7.960;2022-07-22T05:11:31;16.30;99.90
7800;DHT22;3944;47.984;7.960;2022-07-22T05:13:58;16.40;99.90
7800;DHT22;3944;47.984;7.960;2022-07-22T05:16:25;16.30;99.90
7800;DHT22;3944;47.984;7.960;2022-07-22T05:18:52;16.50;99.90
7800;DHT22;3944;47.984;7.960;2022-07-22T05:21:20;16.80;99.90
7800;DHT22;3944;47.984;7.960;2022-07-22T05:23:47;17.10;99.90
7800;DHT22;3944;47.984;7.960;2022-07-22T05:26:14;17.20;99.90
7800;DHT22;3944;47.984;7.960;2022-07-22T05:28:41;17.30;99.90
7800;DHT22;3944;47.984;7.960;2022-07-22T05:31:08;17.40;99.90
7800;DHT22;3944;47.984;7.960;2022-07-22T05:33:35;17.60;99.90
7800;DHT22;3944;47.984;7.960;2022-07-22T05:36:02;17.50;99.90
7800;DHT22;3944;47.984;7.960;2022-07-22T05:38:33;17.80;99.90
7800;DHT22;3944;47.984;7.960;2022-07-22T05:41:00;17.90;99.90
7800;DHT22;3944;47.984;7.960;2022-07-22T05:43:27;17.90;99.90
7800;DHT22;3944;47.984;7.960;2022-07-22T05:45:54;18.20;99.90
7800;DHT22;3944;47.984;7.960;2022-07-22T05:48:21;18.40;99.90
7800;DHT22;3944;47.984;7.960;2022-07-22T05:50:48;18.50;99.90
7800;DHT22;3944;47.984;7.960;2022-07-22T05:53:14;18.60;99.90
7800;DHT22;3944;47.984;7.960;2022-07-22T05:55:43;18.80;99.90
7800;DHT22;3944;47.984;7.960;2022-07-22T05:58:09;18.90;99.90
7800;DHT22;3944;47.984;7.960;2022-07-22T06:00:36;18.90;99.90
7800;DHT22;3944;47.984;7.960;2022-07-22T06:03:05;19.10;99.90
7800;DHT22;3944;47.984;7.960;2022-07-22T06:05:32;19.40;99.90
7800;DHT22;3944;47.984;7.960;2022-07-22T06:08:01;19.30;99.90
7800;DHT22;3944;47.984;7.960;2022-07-22T06:10:27;19.40;99.90
7800;DHT22;3944;47.984;7.960;2022-07-22T06:12:56;19.50;99.90
7800;DHT22;3944;47.984;7.960;2022-07-22T06:15:22;19.50;99.90
7800;DHT22;3944;47.984;7.960;2022-07-22T06:17:49;19.60;99.90
7800;DHT22;3944;47.984;7.960;2022-07-22T06:20:16;19.60;99.90
7800;DHT22;3944;47.984;7.960;2022-07-22T06:22:43;19.60;99.90
7800;DHT22;3944;47.984;7.960;2022-07-22T06:25:10;19.70;99.90
7800;DHT22;3944;47.984;7.960;2022-07-22T06:27:37;19.90;99.90
7800;DHT22;3944;47.984;7.960;2022-07-22T06:30:06;20.00;99.90
7800;DHT22;3944;47.984;7.960;2022-07-22T06:32:34;20.10;99.90
7800;DHT22;3944;47.984;7.960;2022-07-22T06:35:01;20.40;99.90
7800;DHT22;3944;47.984;7.960;2022-07-22T06:37:28;20.30;99.90
7800;DHT22;3944;47.984;7.960;2022-07-22T06:39:55;20.60;99.90
7800;DHT22;3944;47.984;7.960;2022-07-22T06:42:22;20.80;99.90
7800;DHT22;3944;47.984;7.960;2022-07-22T06:44:49;21.00;99.90
7800;DHT22;3944;47.984;7.960;2022-07-22T06:47:17;21.30;99.90
7800;DHT22;3944;47.984;7.960;2022-07-22T06:49:44;21.50;99.90
7800;DHT22;3944;47.984;7.960;2022-07-22T06:52:10;21.80;99.90
7800;DHT22;3944;47.984;7.960;2022-07-22T06:54:37;22.10;99.90
7800;DHT22;3944;47.984;7.960;2022-07-22T06:57:04;22.70;99.90
7800;DHT22;3944;47.984;7.960;2022-07-22T06:59:31;23.10;99.90
7800;DHT22;3944;47.984;7.960;2022-07-22T07:01:58;23.90;99.90
7800;DHT22;3944;47.984;7.960;2022-07-22T07:04:26;24.20;99.90
7800;DHT22;3944;47.984;7.960;2022-07-22T07:06:53;24.30;99.90
7800;DHT22;3944;47.984;7.960;2022-07-22T07:09:20;24.60;99.90
7800;DHT22;3944;47.984;7.960;2022-07-22T07:11:47;24.70;99.90
7800;DHT22;3944;47.984;7.960;2022-07-22T07:14:14;25.00;98.60
7800;DHT22;3944;47.984;7.960;2022-07-22T07:16:40;25.20;97.60
7800;DHT22;3944;47.984;7.960;2022-07-22T07:19:07;24.90;96.30
7800;DHT22;3944;47.984;7.960;2022-07-22T07:21:35;24.40;96.40
7800;DHT22;3944;47.984;7.960;2022-07-22T07:24:02;24.10;97.00
7800;DHT22;3944;47.984;7.960;2022-07-22T07:26:29;23.60;97.80
7800;DHT22;3944;47.984;7.960;2022-07-22T07:28:56;23.30;99.30
7800;DHT22;3944;47.984;7.960;2022-07-22T07:31:23;23.10;99.90
7800;DHT22;3944;47.984;7.960;2022-07-22T07:33:50;23.00;99.90
7800;DHT22;3944;47.984;7.960;2022-07-22T07:36:19;22.90;99.90
7800;DHT22;3944;47.984;7.960;2022-07-22T07:38:47;22.70;99.90
7800;DHT22;3944;47.984;7.960;2022-07-22T07:41:15;22.70;99.90
7800;DHT22;3944;47.984;7.960;2022-07-22T07:43:41;22.60;99.90
7800;DHT22;3944;47.984;7.960;2022-07-22T07:46:08;22.60;99.90
7800;DHT22;3944;47.984;7.960;2022-07-22T07:48:35;22.50;99.90
7800;DHT22;3944;47.984;7.960;2022-07-22T07:51:02;22.50;99.90
7800;DHT22;3944;47.984;7.960;2022-07-22T07:53:30;22.40;99.90
7800;DHT22;3944;47.984;7.960;2022-07-22T07:55:58;22.40;99.90
7800;DHT22;3944;47.984;7.960;2022-07-22T07:58:25;22.30;99.90
7800;DHT22;3944;47.984;7.960;2022-07-22T08:00:52;22.40;99.90
7800;DHT22;3944;47.984;7.960;2022-07-22T08:03:19;22.30;99.90
7800;DHT22;3944;47.984;7.960;2022-07-22T08:05:46;22.30;99.90
7800;DHT22;3944;47.984;7.960;2022-07-22T08:08:13;22.30;99.90
7800;DHT22;3944;47.984;7.960;2022-07-22T08:10:40;22.20;99.90
7800;DHT22;3944;47.984;7.960;2022-07-22T08:13:08;22.20;99.90
7800;DHT22;3944;47.984;7.960;2022-07-22T08:15:35;22.20;99.90
7800;DHT22;3944;47.984;7.960;2022-07-22T08:18:02;22.20;99.90
7800;DHT22;3944;47.984;7.960;2022-07-22T08:20:29;22.20;99.90
7800;DHT22;3944;47.984;7.960;2022-07-22T08:22:56;22.20;99.90
7800;DHT22;3944;47.984;7.960;2022-07-22T08:25:23;22.20;99.90
7800;DHT22;3944;47.984;7.960;2022-07-22T08:27:51;22.30;99.90
7800;DHT22;3944;47.984;7.960;2022-07-22T08:30:19;22.30;99.90
7800;DHT22;3944;47.984;7.960;2022-07-22T08:32:48;22.40;99.90
7800;DHT22;3944;47.984;7.960;2022-07-22T08:35:15;22.40;99.90
7800;DHT22;3944;47.984;7.960;2022-07-22T08:37:44;22.40;99.90
7800;DHT22;3944;47.984;7.960;2022-07-22T08:40:13;22.50;99.90
7800;DHT22;3944;47.984;7.960;2022-07-22T08:42:41;22.50;99.90
7800;DHT22;3944;47.984;7.960;2022-07-22T08:45:09;22.50;99.90
7800;DHT22;3944;47.984;7.960;2022-07-22T08:47:37;22.60;99.90
7800;DHT22;3944;47.984;7.960;2022-07-22T08:50:05;22.70;99.90
7800;DHT22;3944;47.984;7.960;2022-07-22T08:52:32;22.80;99.90
7800;DHT22;3944;47.984;7.960;2022-07-22T08:54:59;23.00;99.90
7800;DHT22;3944;47.984;7.960;2022-07-22T08:57:28;23.10;99.90
7800;DHT22;3944;47.984;7.960;2022-07-22T08:59:57;23.20;99.90
7800;DHT22;3944;47.984;7.960;2022-07-22T09:02:24;23.30;99.90
7800;DHT22;3944;47.984;7.960;2022-07-22T09:04:55;23.40;99.90
7800;DHT22;3944;47.984;7.960;2022-07-22T09:07:28;23.50;99.90
7800;DHT22;3944;47.984;7.960;2022-07-22T09:09:56;23.50;99.90
7800;DHT22;3944;47.984;7.960;2022-07-22T09:12:24;23.40;99.90
7800;DHT22;3944;47.984;7.960;2022-07-22T09:14:54;23.40;99.90
7800;DHT22;3944;47.984;7.960;2022-07-22T09:17:27;23.60;99.90
7800;DHT22;3944;47.984;7.960;2022-07-22T09:19:56;23.70;99.90
7800;DHT22;3944;47.984;7.960;2022-07-22T09:22:34;23.70;99.90
7800;DHT22;3944;47.984;7.960;2022-07-22T09:25:21;23.70;99.90
7800;DHT22;3944;47.984;7.960;2022-07-22T09:27:50;23.80;99.90
7800;DHT22;3944;47.984;7.960;2022-07-22T09:30:18;23.80;99.90
7800;DHT22;3944;47.984;7.960;2022-07-22T09:32:46;23.90;99.90
7800;DHT22;3944;47.984;7.960;2022-07-22T09:35:15;24.10;99.90
7800;DHT22;3944;47.984;7.960;2022-07-22T09:37:49;24.00;99.90
7800;DHT22;3944;47.984;7.960;2022-07-22T09:40:17;24.10;99.90
7800;DHT22;3944;47.984;7.960;2022-07-22T09:42:49;24.20;99.70
7800;DHT22;3944;47.984;7.960;2022-07-22T09:45:17;24.30;99.60
7800;DHT22;3944;47.984;7.960;2022-07-22T09:47:45;24.40;99.80
7800;DHT22;3944;47.984;7.960;2022-07-22T09:50:19;24.40;99.30
7800;DHT22;3944;47.984;7.960;2022-07-22T09:52:48;24.40;99.60
7800;DHT22;3944;47.984;7.960;2022-07-22T09:55:16;24.40;98.60
7800;DHT22;3944;47.984;7.960;2022-07-22T09:57:44;24.50;98.40
7800;DHT22;3944;47.984;7.960;2022-07-22T10:00:12;24.50;98.90
7800;DHT22;3944;47.984;7.960;2022-07-22T10:02:42;24.70;98.90
7800;DHT22;3944;47.984;7.960;2022-07-22T10:05:12;24.60;98.80
7800;DHT22;3944;47.984;7.960;2022-07-22T10:07:41;24.80;99.50
7800;DHT22;3944;47.984;7.960;2022-07-22T10:10:12;24.90;98.50
7800;DHT22;3944;47.984;7.960;2022-07-22T10:12:40;24.80;97.40
7800;DHT22;3944;47.984;7.960;2022-07-22T10:15:09;24.60;98.40
7800;DHT22;3944;47.984;7.960;2022-07-22T10:17:38;24.80;98.30
7800;DHT22;3944;47.984;7.960;2022-07-22T10:20:06;24.90;96.80
7800;DHT22;3944;47.984;7.960;2022-07-22T10:22:55;24.80;98.00
7800;DHT22;3944;47.984;7.960;2022-07-22T10:25:23;24.90;96.80
7800;DHT22;3944;47.984;7.960;2022-07-22T10:27:53;24.90;97.70
7800;DHT22;3944;47.984;7.960;2022-07-22T10:30:22;24.90;98.00
7800;DHT22;3944;47.984;7.960;2022-07-22T10:33:03;24.90;97.50
7800;DHT22;3944;47.984;7.960;2022-07-22T10:35:31;25.10;96.00
7800;DHT22;3944;47.984;7.960;2022-07-22T10:38:05;25.10;96.10
7800;DHT22;3944;47.984;7.960;2022-07-22T10:40:46;25.00;97.10
7800;DHT22;3944;47.984;7.960;2022-07-22T10:43:15;25.40;98.20
7800;DHT22;3944;47.984;7.960;2022-07-22T10:45:45;25.20;97.20
7800;DHT22;3944;47.984;7.960;2022-07-22T10:48:14;25.20;97.20
7800;DHT22;3944;47.984;7.960;2022-07-22T10:50:43;25.30;96.60
7800;DHT22;3944;47.984;7.960;2022-07-22T10:53:13;25.40;96.10
7800;DHT22;3944;47.984;7.960;2022-07-22T10:55:59;25.50;96.30
7800;DHT22;3944;47.984;7.960;2022-07-22T10:58:40;25.50;96.50
7800;DHT22;3944;47.984;7.960;2022-07-22T11:01:09;25.60;94.90
7800;DHT22;3944;47.984;7.960;2022-07-22T11:03:38;25.60;95.10
7800;DHT22;3944;47.984;7.960;2022-07-22T11:06:27;25.70;94.90
7800;DHT22;3944;47.984;7.960;2022-07-22T11:08:57;25.60;95.60
7800;DHT22;3944;47.984;7.960;2022-07-22T11:11:35;25.80;95.50
7800;DHT22;3944;47.984;7.960;2022-07-22T11:14:10;26.00;94.30
7800;DHT22;3944;47.984;7.960;2022-07-22T11:16:37;25.90;94.50
7800;DHT22;3944;47.984;7.960;2022-07-22T11:19:04;25.90;94.40
7800;DHT22;3944;47.984;7.960;2022-07-22T11:21:33;26.10;94.70
7800;DHT22;3944;47.984;7.960;2022-07-22T11:24:04;26.00;94.10
7800;DHT22;3944;47.984;7.960;2022-07-22T11:26:36;26.20;94.50
7800;DHT22;3944;47.984;7.960;2022-07-22T11:29:05;26.20;94.60
7800;DHT22;3944;47.984;7.960;2022-07-22T11:31:32;26.20;94.50
7800;DHT22;3944;47.984;7.960;2022-07-22T11:34:07;26.20;95.20
7800;DHT22;3944;47.984;7.960;2022-07-22T11:36:35;26.10;94.90
7800;DHT22;3944;47.984;7.960;2022-07-22T11:39:05;26.20;95.40
7800;DHT22;3944;47.984;7.960;2022-07-22T11:41:33;26.40;95.10
7800;DHT22;3944;47.984;7.960;2022-07-22T11:44:01;26.40;94.40
7800;DHT22;3944;47.984;7.960;2022-07-22T11:46:33;26.40;93.80
7800;DHT22;3944;47.984;7.960;2022-07-22T11:49:00;26.30;93.80
7800;DHT22;3944;47.984;7.960;2022-07-22T11:51:29;26.50;94.30
7800;DHT22;3944;47.984;7.960;2022-07-22T11:53:57;26.40;93.90
7800;DHT22;3944;47.984;7.960;2022-07-22T11:56:27;26.50;94.50
7800;DHT22;3944;47.984;7.960;2022-07-22T11:58:54;26.50;93.10
7800;DHT22;3944;47.984;7.960;2022-07-22T12:01:24;26.40;92.80
7800;DHT22;3944;47.984;7.960;2022-07-22T12:03:53;26.40;94.40
7800;DHT22;3944;47.984;7.960;2022-07-22T12:06:22;26.60;93.90
7800;DHT22;3944;47.984;7.960;2022-07-22T12:08:51;26.60;93.80
7800;DHT22;3944;47.984;7.960;2022-07-22T12:11:21;26.80;93.10
7800;DHT22;3944;47.984;7.960;2022-07-22T12:13:51;26.80;92.50
7800;DHT22;3944;47.984;7.960;2022-07-22T12:16:21;26.70;93.50
7800;DHT22;3944;47.984;7.960;2022-07-22T12:18:52;26.80;92.90
7800;DHT22;3944;47.984;7.960;2022-07-22T12:21:20;26.90;92.30
7800;DHT22;3944;47.984;7.960;2022-07-22T12:23:52;26.80;92.80
7800;DHT22;3944;47.984;7.960;2022-07-22T12:26:19;26.90;92.30
7800;DHT22;3944;47.984;7.960;2022-07-22T12:29:15;27.00;92.80
7800;DHT22;3944;47.984;7.960;2022-07-22T12:31:43;27.00;93.70
7800;DHT22;3944;47.984;7.960;2022-07-22T12:34:11;27.00;92.60
7800;DHT22;3944;47.984;7.960;2022-07-22T12:36:38;27.20;92.00
7800;DHT22;3944;47.984;7.960;2022-07-22T12:39:15;27.20;92.00
7800;DHT22;3944;47.984;7.960;2022-07-22T12:41:48;27.10;92.50
7800;DHT22;3944;47.984;7.960;2022-07-22T12:44:18;27.20;92.40
7800;DHT22;3944;47.984;7.960;2022-07-22T12:46:47;27.00;92.50
7800;DHT22;3944;47.984;7.960;2022-07-22T12:49:16;27.20;92.00
7800;DHT22;3944;47.984;7.960;2022-07-22T12:52:08;27.10;91.90
7800;DHT22;3944;47.984;7.960;2022-07-22T12:54:37;27.20;91.70
7800;DHT22;3944;47.984;7.960;2022-07-22T12:57:04;27.20;91.90
7800;DHT22;3944;47.984;7.960;2022-07-22T12:59:33;27.30;91.60
7800;DHT22;3944;47.984;7.960;2022-07-22T13:02:00;27.20;91.40
7800;DHT22;3944;47.984;7.960;2022-07-22T13:04:27;27.00;92.30
7800;DHT22;3944;47.984;7.960;2022-07-22T13:06:54;26.90;92.10
7800;DHT22;3944;47.984;7.960;2022-07-22T13:09:21;26.90;91.80
7800;DHT22;3944;47.984;7.960;2022-07-22T13:11:48;27.00;92.20
7800;DHT22;3944;47.984;7.960;2022-07-22T13:14:15;27.10;92.20
7800;DHT22;3944;47.984;7.960;2022-07-22T13:16:47;27.10;91.60
7800;DHT22;3944;47.984;7.960;2022-07-22T13:19:13;27.20;92.00
7800;DHT22;3944;47.984;7.960;2022-07-22T13:21:40;27.20;91.60
7800;DHT22;3944;47.984;7.960;2022-07-22T13:24:08;27.10;92.10
7800;DHT22;3944;47.984;7.960;2022-07-22T13:26:35;27.20;91.50
7800;DHT22;3944;47.984;7.960;2022-07-22T13:29:02;27.40;90.90
7800;DHT22;3944;47.984;7.960;2022-07-22T13:31:29;27.60;91.30
7800;DHT22;3944;47.984;7.960;2022-07-22T13:33:58;27.70;90.80
7800;DHT22;3944;47.984;7.960;2022-07-22T13:36:25;27.60;90.70
7800;DHT22;3944;47.984;7.960;2022-07-22T13:38:54;27.70;90.80
7800;DHT22;3944;47.984;7.960;2022-07-22T13:41:21;27.80;90.60
7800;DHT22;3944;47.984;7.960;2022-07-22T13:43:48;27.90;91.20
7800;DHT22;3944;47.984;7.960;2022-07-22T13:46:16;27.90;91.30
7800;DHT22;3944;47.984;7.960;2022-07-22T13:48:44;28.00;90.50
7800;DHT22;3944;47.984;7.960;2022-07-22T13:51:12;27.90;90.50
7800;DHT22;3944;47.984;7.960;2022-07-22T13:53:40;27.90;90.90
7800;DHT22;3944;47.984;7.960;2022-07-22T13:56:08;27.90;89.80
7800;DHT22;3944;47.984;7.960;2022-07-22T13:58:37;28.00;89.00
7800;DHT22;3944;47.984;7.960;2022-07-22T14:01:06;28.10;88.40
7800;DHT22;3944;47.984;7.960;2022-07-22T14:03:33;27.90;88.10
7800;DHT22;3944;47.984;7.960;2022-07-22T14:06:00;27.90;88.90
7800;DHT22;3944;47.984;7.960;2022-07-22T14:08:28;28.30;89.90
7800;DHT22;3944;47.984;7.960;2022-07-22T14:10:55;28.20;88.10
7800;DHT22;3944;47.984;7.960;2022-07-22T14:13:22;28.00;88.50
7800;DHT22;3944;47.984;7.960;2022-07-22T14:15:49;28.00;87.60
7800;DHT22;3944;47.984;7.960;2022-07-22T14:18:16;27.90;87.90
7800;DHT22;3944;47.984;7.960;2022-07-22T14:20:43;28.00;87.80
7800;DHT22;3944;47.984;7.960;2022-07-22T14:23:10;27.90;89.30
7800;DHT22;3944;47.984;7.960;2022-07-22T14:25:40;28.00;87.30
7800;DHT22;3944;47.984;7.960;2022-07-22T14:28:09;27.90;86.20
7800;DHT22;3944;47.984;7.960;2022-07-22T14:30:38;27.90;85.40
7800;DHT22;3944;47.984;7.960;2022-07-22T14:33:05;27.70;85.40
7800;DHT22;3944;47.984;7.960;2022-07-22T14:35:31;27.60;84.90
7800;DHT22;3944;47.984;7.960;2022-07-22T14:38:00;27.70;86.50
7800;DHT22;3944;47.984;7.960;2022-07-22T14:40:28;27.70;88.10
7800;DHT22;3944;47.984;7.960;2022-07-22T14:42:58;27.70;86.70
7800;DHT22;3944;47.984;7.960;2022-07-22T14:45:27;28.00;78.20
7800;DHT22;3944;47.984;7.960;2022-07-22T14:47:56;28.00;78.60
7800;DHT22;3944;47.984;7.960;2022-07-22T14:50:23;28.20;73.70
7800;DHT22;3944;47.984;7.960;2022-07-22T14:52:50;28.10;68.40
7800;DHT22;3944;47.984;7.960;2022-07-22T14:55:17;28.00;71.50
7800;DHT22;3944;47.984;7.960;2022-07-22T14:57:44;28.20;68.00
7800;DHT22;3944;47.984;7.960;2022-07-22T15:00:13;28.20;68.20
7800;DHT22;3944;47.984;7.960;2022-07-22T15:02:40;28.00;71.00
7800;DHT22;3944;47.984;7.960;2022-07-22T15:05:08;27.80;67.10
7800;DHT22;3944;47.984;7.960;2022-07-22T15:07:35;27.80;68.80
7800;DHT22;3944;47.984;7.960;2022-07-22T15:10:03;27.80;67.20
7800;DHT22;3944;47.984;7.960;2022-07-22T15:12:30;28.00;65.20
7800;DHT22;3944;47.984;7.960;2022-07-22T15:14:57;28.00;64.60
7800;DHT22;3944;47.984;7.960;2022-07-22T15:17:26;28.00;62.20
7800;DHT22;3944;47.984;7.960;2022-07-22T15:19:53;27.80;64.90
7800;DHT22;3944;47.984;7.960;2022-07-22T15:22:20;27.80;60.30
7800;DHT22;3944;47.984;7.960;2022-07-22T15:24:51;27.90;61.00
7800;DHT22;3944;47.984;7.960;2022-07-22T15:27:18;27.70;63.70
7800;DHT22;3944;47.984;7.960;2022-07-22T15:29:45;27.60;63.90
7800;DHT22;3944;47.984;7.960;2022-07-22T15:32:13;27.50;62.40
7800;DHT22;3944;47.984;7.960;2022-07-22T15:34:42;27.80;61.70
7800;DHT22;3944;47.984;7.960;2022-07-22T15:37:09;27.70;63.20
7800;DHT22;3944;47.984;7.960;2022-07-22T15:39:36;27.90;58.90
7800;DHT22;3944;47.984;7.960;2022-07-22T15:42:04;28.00;61.80
7800;DHT22;3944;47.984;7.960;2022-07-22T15:44:31;28.00;58.70
7800;DHT22;3944;47.984;7.960;2022-07-22T15:46:58;28.00;58.70
7800;DHT22;3944;47.984;7.960;2022-07-22T15:49:25;28.10;58.50
7800;DHT22;3944;47.984;7.960;2022-07-22T15:51:54;28.10;61.10
7800;DHT22;3944;47.984;7.960;2022-07-22T15:54:21;28.30;60.40
7800;DHT22;3944;47.984;7.960;2022-07-22T15:56:50;28.60;60.10
7800;DHT22;3944;47.984;7.960;2022-07-22T15:59:17;28.70;58.80
7800;DHT22;3944;47.984;7.960;2022-07-22T16:01:59;28.70;59.80
7800;DHT22;3944;47.984;7.960;2022-07-22T16:04:26;27.80;71.80
7800;DHT22;3944;47.984;7.960;2022-07-22T16:06:54;27.90;65.60
7800;DHT22;3944;47.984;7.960;2022-07-22T16:09:22;28.10;64.90